createdAt,value
2022-12-04T00:01:14.844Z,11.13
2022-12-04T00:03:43.127Z,10.38
2022-12-04T00:06:14.236Z,10.57
2022-12-04T00:08:43.034Z,9.98
2022-12-04T00:11:13.146Z,8.63
2022-12-04T00:13:42.162Z,9.32
2022-12-04T00:16:13.192Z,9.73
2022-12-04T00:18:41.534Z,11.05
2022-12-04T00:21:13.348Z,10.40
2022-12-04T00:23:42.180Z,8.40
2022-12-04T00:26:15.651Z,10.02
2022-12-04T00:28:44.358Z,9.85
2022-12-04T00:31:15.057Z,9.75
2022-12-04T00:33:44.721Z,8.75
2022-12-04T00:36:16.865Z,7.70
2022-12-04T00:38:45.275Z,9.25
2022-12-04T00:41:15.390Z,9.15
2022-12-04T00:43:43.528Z,8.48
2022-12-04T00:46:11.791Z,8.13
2022-12-04T00:48:40.525Z,9.18
2022-12-04T00:51:11.142Z,8.82
2022-12-04T00:53:41.029Z,8.35
2022-12-04T00:56:11.248Z,8.82
2022-12-04T00:58:39.434Z,8.38
2022-12-04T01:01:10.894Z,8.00
2022-12-04T01:03:39.172Z,8.05
2022-12-04T01:06:08.465Z,7.93
2022-12-04T01:08:36.600Z,9.27
2022-12-04T01:11:08.203Z,7.65
2022-12-04T01:13:36.399Z,7.35
2022-12-04T01:16:04.617Z,7.30
2022-12-04T01:18:32.767Z,8.13
2022-12-04T01:21:01.072Z,8.20
2022-12-04T01:23:29.205Z,7.75
2022-12-04T01:25:59.651Z,8.30
2022-12-04T01:28:29.262Z,7.63
2022-12-04T01:31:01.373Z,7.25
2022-12-04T01:33:30.277Z,6.90
2022-12-04T01:36:00.087Z,7.00
2022-12-04T01:38:28.894Z,6.60
2022-12-04T01:40:57.781Z,6.45
2022-12-04T01:43:27.258Z,6.93
2022-12-04T01:45:58.252Z,6.55
2022-12-04T01:48:31.998Z,6.20
2022-12-04T01:51:06.023Z,6.72
2022-12-04T01:53:36.453Z,6.05
2022-12-04T01:56:05.744Z,6.32
2022-12-04T01:58:39.033Z,6.40
2022-12-04T02:01:09.832Z,7.15
2022-12-04T02:03:39.176Z,6.75
2022-12-04T02:06:08.173Z,6.30
2022-12-04T02:08:37.778Z,7.00
2022-12-04T02:11:15.723Z,6.90
2022-12-04T02:13:52.753Z,6.40
2022-12-04T02:16:29.354Z,5.90
2022-12-04T02:19:08.140Z,6.80
2022-12-04T02:21:38.876Z,6.90
2022-12-04T02:24:33.902Z,7.10
2022-12-04T02:27:05.851Z,6.82
2022-12-04T02:29:42.000Z,7.28
2022-12-04T02:32:20.086Z,6.60
2022-12-04T02:34:56.874Z,6.30
2022-12-04T02:37:31.299Z,5.53
2022-12-04T02:40:05.883Z,6.53
2022-12-04T02:42:40.389Z,5.40
2022-12-04T02:45:13.669Z,5.95
2022-12-04T02:47:44.565Z,5.70
2022-12-04T02:50:15.952Z,6.15
2022-12-04T02:52:48.548Z,6.80
2022-12-04T02:55:20.525Z,6.15
2022-12-04T02:57:53.724Z,5.72
2022-12-04T03:00:23.863Z,5.70
2022-12-04T03:02:56.595Z,5.13
2022-12-04T03:05:31.276Z,5.65
2022-12-04T03:08:05.565Z,5.35
2022-12-04T03:10:37.636Z,5.90
2022-12-04T03:13:10.112Z,5.45
2022-12-04T03:15:45.399Z,5.28
2022-12-04T03:18:17.971Z,5.38
2022-12-04T03:20:50.079Z,5.45
2022-12-04T03:23:23.770Z,5.80
2022-12-04T03:25:59.161Z,5.22
2022-12-04T03:28:34.358Z,6.03
2022-12-04T03:31:09.279Z,5.82
2022-12-04T03:33:41.978Z,6.55
2022-12-04T03:36:17.514Z,5.80
2022-12-04T03:38:50.657Z,5.22
2022-12-04T03:41:27.175Z,6.03
2022-12-04T03:44:00.083Z,6.22
2022-12-04T03:46:35.489Z,5.93
2022-12-04T03:49:13.849Z,7.10
2022-12-04T03:51:48.767Z,6.63
2022-12-04T03:54:20.995Z,7.07
2022-12-04T03:56:55.097Z,7.45
2022-12-04T03:59:27.976Z,9.68
2022-12-04T04:02:01.221Z,16.95
2022-12-04T04:04:33.542Z,20.38
2022-12-04T04:07:06.329Z,24.55
2022-12-04T04:09:40.302Z,24.65
2022-12-04T04:12:11.903Z,21.45
2022-12-04T04:15:03.958Z,18.55
2022-12-04T04:17:56.796Z,15.35
2022-12-04T04:20:53.922Z,11.20
2022-12-04T04:23:41.244Z,8.95
2022-12-04T04:26:12.489Z,8.57
2022-12-04T04:28:42.432Z,7.50
2022-12-04T04:31:18.582Z,6.30
2022-12-04T04:33:57.552Z,6.97
2022-12-04T04:36:37.822Z,6.65
2022-12-04T04:39:16.879Z,7.05
2022-12-04T04:41:51.219Z,6.28
2022-12-04T04:44:26.909Z,6.53
2022-12-04T04:47:03.033Z,6.38
2022-12-04T04:49:35.078Z,6.70
2022-12-04T04:52:04.061Z,6.00
2022-12-04T04:54:34.704Z,4.40
2022-12-04T04:57:02.828Z,4.57
2022-12-04T04:59:30.909Z,5.28
2022-12-04T05:01:59.537Z,6.60
2022-12-04T05:04:27.719Z,4.90
2022-12-04T05:06:57.236Z,6.65
2022-12-04T05:09:26.386Z,5.22
2022-12-04T05:11:54.505Z,6.03
2022-12-04T05:14:22.598Z,6.03
2022-12-04T05:16:50.749Z,6.63
2022-12-04T05:19:36.023Z,6.28
2022-12-04T05:22:05.603Z,5.88
2022-12-04T05:24:34.133Z,5.93
2022-12-04T05:27:02.284Z,6.68
2022-12-04T05:29:35.548Z,7.70
2022-12-04T05:32:04.176Z,7.35
2022-12-04T05:34:32.412Z,7.20
2022-12-04T05:37:00.487Z,6.82
2022-12-04T05:39:30.035Z,8.02
2022-12-04T05:41:58.165Z,7.30
2022-12-04T05:44:26.509Z,7.60
2022-12-04T05:46:54.711Z,7.55
2022-12-04T05:49:22.923Z,8.55
2022-12-04T05:51:51.665Z,8.63
2022-12-04T05:54:19.915Z,9.05
2022-12-04T05:56:49.532Z,8.27
2022-12-04T05:59:18.074Z,8.55
2022-12-04T06:01:46.950Z,9.35
2022-12-04T06:04:15.239Z,8.45
2022-12-04T06:06:43.433Z,9.18
2022-12-04T06:09:12.630Z,8.38
2022-12-04T06:11:42.575Z,8.95
2022-12-04T06:14:14.068Z,8.77
2022-12-04T06:16:44.504Z,9.40
2022-12-04T06:19:15.626Z,9.50
2022-12-04T06:21:45.686Z,8.52
2022-12-04T06:24:15.968Z,7.60
2022-12-04T06:27:11.356Z,9.00
2022-12-04T06:29:34.722Z,7.85
2022-12-04T06:32:03.231Z,8.15
2022-12-04T06:34:31.466Z,8.63
2022-12-04T06:36:59.697Z,8.90
2022-12-04T06:39:27.895Z,8.20
2022-12-04T06:41:55.983Z,7.55
2022-12-04T06:44:24.214Z,8.43
2022-12-04T06:46:54.927Z,8.48
2022-12-04T06:49:23.278Z,9.35
2022-12-04T06:51:51.439Z,8.57
2022-12-04T06:54:19.609Z,8.15
2022-12-04T06:56:49.822Z,8.43
2022-12-04T06:59:18.315Z,9.43
2022-12-04T07:01:46.732Z,8.98
2022-12-04T07:04:16.343Z,8.82
2022-12-04T07:06:44.831Z,9.18
2022-12-04T07:09:15.655Z,9.40
2022-12-04T07:11:45.035Z,9.38
2022-12-04T07:14:14.638Z,9.07
2022-12-04T07:16:43.930Z,9.00
2022-12-04T07:19:14.583Z,8.45
2022-12-04T07:21:44.951Z,8.10
2022-12-04T07:24:16.487Z,8.27
2022-12-04T07:26:44.811Z,7.13
2022-12-04T07:29:13.488Z,7.50
2022-12-04T07:31:41.873Z,6.80
2022-12-04T07:34:10.111Z,7.05
2022-12-04T07:36:38.295Z,7.35
2022-12-04T07:39:08.499Z,6.72
2022-12-04T07:41:36.893Z,6.80
2022-12-04T07:44:08.442Z,6.82
2022-12-04T07:46:36.726Z,6.25
2022-12-04T07:49:04.998Z,6.03
2022-12-04T07:51:33.160Z,5.75
2022-12-04T07:54:04.112Z,6.28
2022-12-04T07:56:34.729Z,6.00
2022-12-04T07:59:03.017Z,5.40
2022-12-04T08:01:31.679Z,6.05
2022-12-04T08:04:03.297Z,5.57
2022-12-04T08:06:34.981Z,5.28
2022-12-04T08:09:09.253Z,6.15
2022-12-04T08:11:39.820Z,5.18
2022-12-04T08:14:09.121Z,4.25
2022-12-04T08:16:37.786Z,5.05
2022-12-04T08:19:06.275Z,5.53
2022-12-04T08:21:35.255Z,5.28
2022-12-04T08:24:04.963Z,4.25
2022-12-04T08:26:35.486Z,4.50
2022-12-04T08:29:06.272Z,5.18
2022-12-04T08:31:36.238Z,5.70
2022-12-04T08:34:08.206Z,5.05
2022-12-04T08:36:37.119Z,5.85
2022-12-04T08:39:07.201Z,4.80
2022-12-04T08:41:35.860Z,6.70
2022-12-04T08:44:07.316Z,6.15
2022-12-04T08:46:35.866Z,4.75
2022-12-04T08:49:04.989Z,5.40
2022-12-04T08:51:34.791Z,5.15
2022-12-04T08:54:05.734Z,5.10
2022-12-04T08:56:35.461Z,5.57
2022-12-04T08:59:05.418Z,4.65
2022-12-04T09:01:34.498Z,5.25
2022-12-04T09:04:04.034Z,5.15
2022-12-04T09:06:33.461Z,5.38
2022-12-04T09:09:01.940Z,5.97
2022-12-04T09:11:30.679Z,5.47
2022-12-04T09:13:59.823Z,5.65
2022-12-04T09:16:30.534Z,4.78
2022-12-04T09:18:59.049Z,4.68
2022-12-04T09:21:27.291Z,6.13
2022-12-04T09:23:55.440Z,5.63
2022-12-04T09:26:25.459Z,4.97
2022-12-04T09:28:55.295Z,4.95
2022-12-04T09:31:25.078Z,4.82
2022-12-04T09:33:55.184Z,4.25
2022-12-04T09:36:23.485Z,4.10
2022-12-04T09:38:53.723Z,5.20
2022-12-04T09:41:56.141Z,5.50
2022-12-04T09:44:28.959Z,4.50
2022-12-04T09:47:02.921Z,6.07
2022-12-04T09:49:41.809Z,4.40
2022-12-04T09:52:22.163Z,4.95
2022-12-04T09:54:54.107Z,5.85
2022-12-04T09:57:31.233Z,5.57
2022-12-04T10:00:00.369Z,6.40
2022-12-04T10:02:37.638Z,5.43
2022-12-04T10:05:18.331Z,6.55
2022-12-04T10:07:55.772Z,5.45
2022-12-04T10:10:32.297Z,4.97
2022-12-04T10:13:13.685Z,5.30
2022-12-04T10:15:49.862Z,4.80
2022-12-04T10:18:34.177Z,5.07
2022-12-04T10:21:24.272Z,5.43
2022-12-04T10:24:06.247Z,5.70
2022-12-04T10:26:40.028Z,5.38
2022-12-04T10:29:16.523Z,5.38
2022-12-04T10:31:47.452Z,5.70
2022-12-04T10:34:22.236Z,6.53
2022-12-04T10:36:54.824Z,6.28
2022-12-04T10:39:26.347Z,6.53
2022-12-04T10:42:02.138Z,5.88
2022-12-04T10:44:32.580Z,6.22
2022-12-04T10:47:04.097Z,6.60
2022-12-04T10:49:38.287Z,6.78
2022-12-04T10:52:13.251Z,7.20
2022-12-04T10:54:54.580Z,7.55
2022-12-04T10:57:24.923Z,7.55
2022-12-04T10:59:57.262Z,6.60
2022-12-04T11:02:28.914Z,7.35
2022-12-04T11:04:59.317Z,6.88
2022-12-04T11:07:32.399Z,7.88
2022-12-04T11:10:05.062Z,7.43
2022-12-04T11:12:34.040Z,6.68
2022-12-04T11:15:13.911Z,7.30
2022-12-04T11:17:43.142Z,7.15
2022-12-04T11:20:18.343Z,6.25
2022-12-04T11:22:57.101Z,5.75
2022-12-04T11:25:29.111Z,4.85
2022-12-04T11:28:01.513Z,5.43
2022-12-04T11:30:33.186Z,6.68
2022-12-04T11:33:04.156Z,6.30
2022-12-04T11:35:35.668Z,6.85
2022-12-04T11:38:14.631Z,5.65
2022-12-04T11:40:48.755Z,5.07
2022-12-04T11:43:20.752Z,4.95
2022-12-04T11:45:56.978Z,5.60
2022-12-04T11:48:27.387Z,6.53
2022-12-04T11:51:07.026Z,6.85
2022-12-04T11:53:45.738Z,7.65
2022-12-04T11:56:27.999Z,8.00
2022-12-04T11:59:14.638Z,6.80
2022-12-04T12:01:57.961Z,7.10
2022-12-04T12:04:46.581Z,6.60
2022-12-04T12:07:28.054Z,6.45
2022-12-04T12:10:05.800Z,7.20
2022-12-04T12:12:49.399Z,7.20
2022-12-04T12:15:27.486Z,7.18
2022-12-04T12:18:19.137Z,7.95
2022-12-04T12:21:02.227Z,7.80
2022-12-04T12:23:47.710Z,6.70
2022-12-04T12:26:20.232Z,8.55
2022-12-04T12:29:12.118Z,7.07
2022-12-04T12:32:02.196Z,7.25
2022-12-04T12:34:39.551Z,7.68
2022-12-04T12:37:18.276Z,8.80
2022-12-04T12:39:52.307Z,8.10
2022-12-04T12:42:31.160Z,9.10
2022-12-04T12:45:06.826Z,9.13
2022-12-04T12:47:43.498Z,9.20
2022-12-04T12:50:19.156Z,8.60
2022-12-04T12:52:57.223Z,8.45
2022-12-04T12:55:30.920Z,8.27
2022-12-04T12:58:09.092Z,8.43
2022-12-04T13:00:47.696Z,8.85
2022-12-04T13:03:32.081Z,9.20
2022-12-04T13:06:07.245Z,8.02
2022-12-04T13:08:44.960Z,7.78
2022-12-04T13:11:23.143Z,7.97
2022-12-04T13:13:59.785Z,8.30
2022-12-04T13:16:34.363Z,8.95
2022-12-04T13:19:11.713Z,8.55
2022-12-04T13:21:46.815Z,7.18
2022-12-04T13:24:50.889Z,8.05
2022-12-04T13:27:31.515Z,8.95
2022-12-04T13:30:12.157Z,8.23
2022-12-04T13:33:17.584Z,7.60
2022-12-04T13:36:12.585Z,7.47
2022-12-04T13:38:58.052Z,8.52
2022-12-04T13:41:31.850Z,9.18
2022-12-04T13:44:07.069Z,10.15
2022-12-04T13:46:42.221Z,7.55
2022-12-04T13:49:28.856Z,8.10
2022-12-04T13:52:04.898Z,8.13
2022-12-04T13:54:38.138Z,8.95
2022-12-04T13:57:22.834Z,8.25
2022-12-04T14:00:06.050Z,8.98
2022-12-04T14:02:52.158Z,8.32
2022-12-04T14:05:30.050Z,9.20
2022-12-04T14:08:07.825Z,9.70
2022-12-04T14:10:41.208Z,8.10
2022-12-04T14:13:22.631Z,9.18
2022-12-04T14:16:06.301Z,8.93
2022-12-04T14:18:40.151Z,8.70
2022-12-04T14:21:11.899Z,8.38
2022-12-04T14:23:42.453Z,8.77
2022-12-04T14:26:21.507Z,8.07
2022-12-04T14:28:50.028Z,7.57
2022-12-04T14:31:34.307Z,9.32
2022-12-04T14:34:14.155Z,8.13
2022-12-04T14:36:45.090Z,8.93
2022-12-04T14:39:18.195Z,8.00
2022-12-04T14:41:46.405Z,8.55
2022-12-04T14:44:27.902Z,9.63
2022-12-04T14:47:01.166Z,9.85
2022-12-04T14:49:46.549Z,10.30
2022-12-04T14:52:25.308Z,9.63
2022-12-04T14:55:06.629Z,10.77
2022-12-04T14:57:46.067Z,10.60
2022-12-04T15:00:19.794Z,10.00
2022-12-04T15:02:50.122Z,10.07
2022-12-04T15:05:23.942Z,10.25
2022-12-04T15:07:54.531Z,10.23
2022-12-04T15:10:42.421Z,9.50
2022-12-04T15:13:11.134Z,9.65
2022-12-04T15:15:45.749Z,10.23
2022-12-04T15:18:15.875Z,10.27
2022-12-04T15:20:56.496Z,10.25
2022-12-04T15:23:30.774Z,11.57
2022-12-04T15:26:01.759Z,11.57
2022-12-04T15:28:34.484Z,11.68
2022-12-04T15:31:06.937Z,10.60
2022-12-04T15:33:39.018Z,10.43
2022-12-04T15:36:13.624Z,10.88
2022-12-04T15:38:42.276Z,11.02
2022-12-04T15:41:30.309Z,10.75
2022-12-04T15:43:59.220Z,10.60
2022-12-04T15:46:32.890Z,10.57
2022-12-04T15:49:15.763Z,10.02
2022-12-04T15:51:46.547Z,9.45
2022-12-04T15:54:25.987Z,10.95
2022-12-04T15:57:02.761Z,11.38
2022-12-04T15:59:32.138Z,10.45
2022-12-04T16:02:21.367Z,10.88
2022-12-04T16:04:49.537Z,12.20
2022-12-04T16:07:24.478Z,12.90
2022-12-04T16:10:01.075Z,11.05
2022-12-04T16:12:32.932Z,10.88
2022-12-04T16:15:01.112Z,11.80
2022-12-04T16:17:32.348Z,13.15
2022-12-04T16:20:01.473Z,12.40
2022-12-04T16:22:32.047Z,13.07
2022-12-04T16:25:00.444Z,9.93
2022-12-04T16:27:28.696Z,11.10
2022-12-04T16:29:56.862Z,10.73
2022-12-04T16:32:31.303Z,11.40
2022-12-04T16:34:59.538Z,10.27
2022-12-04T16:37:28.538Z,10.52
2022-12-04T16:39:58.292Z,11.73
2022-12-04T16:42:29.392Z,10.32
2022-12-04T16:44:59.225Z,10.52
2022-12-04T16:47:27.733Z,9.60
2022-12-04T16:49:55.850Z,9.15
2022-12-04T16:52:24.056Z,9.50
2022-12-04T16:54:52.329Z,10.27
2022-12-04T16:57:21.851Z,10.95
2022-12-04T16:59:49.967Z,9.43
2022-12-04T17:02:24.633Z,9.43
2022-12-04T17:04:57.218Z,10.15
2022-12-04T17:07:26.181Z,9.40
2022-12-04T17:09:54.296Z,9.20
2022-12-04T17:12:23.836Z,9.27
2022-12-04T17:14:51.991Z,11.45
2022-12-04T17:17:20.102Z,11.13
2022-12-04T17:19:48.209Z,13.13
2022-12-04T17:22:21.008Z,13.82
2022-12-04T17:24:55.613Z,14.00
2022-12-04T17:27:26.874Z,16.50
2022-12-04T17:29:55.060Z,12.07
2022-12-04T17:32:23.227Z,11.10
2022-12-04T17:34:54.620Z,15.60
2022-12-04T17:37:23.366Z,10.85
2022-12-04T17:39:51.524Z,11.35
2022-12-04T17:42:19.891Z,10.25
2022-12-04T17:44:49.444Z,11.70
2022-12-04T17:47:17.892Z,11.80
2022-12-04T17:49:46.060Z,10.13
2022-12-04T17:52:14.305Z,11.77
2022-12-04T17:54:42.571Z,10.90
2022-12-04T17:57:10.695Z,10.65
2022-12-04T17:59:38.895Z,11.13
2022-12-04T18:02:08.356Z,12.40
2022-12-04T18:04:36.811Z,11.48
2022-12-04T18:07:05.216Z,9.85
2022-12-04T18:09:33.499Z,9.82
2022-12-04T18:12:02.627Z,10.80
2022-12-04T18:14:31.798Z,11.07
2022-12-04T18:17:00.111Z,11.68
2022-12-04T18:19:30.877Z,11.73
2022-12-04T18:21:59.578Z,10.80
2022-12-04T18:24:28.108Z,10.90
2022-12-04T18:26:56.268Z,11.70
2022-12-04T18:29:26.875Z,10.30
2022-12-04T18:31:55.414Z,10.73
2022-12-04T18:34:24.082Z,9.70
2022-12-04T18:36:53.633Z,9.95
2022-12-04T18:39:23.850Z,9.52
2022-12-04T18:41:52.239Z,10.98
2022-12-04T18:44:20.382Z,10.60
2022-12-04T18:46:48.522Z,10.50
2022-12-04T18:49:16.822Z,11.30
2022-12-04T18:51:49.713Z,10.38
2022-12-04T18:54:21.987Z,10.38
2022-12-04T18:56:50.873Z,9.93
2022-12-04T18:59:21.194Z,9.48
2022-12-04T19:01:51.015Z,10.00
2022-12-04T19:04:20.370Z,9.18
2022-12-04T19:06:52.396Z,10.07
2022-12-04T19:09:40.939Z,9.60
2022-12-04T19:12:12.454Z,8.63
2022-12-04T19:14:41.318Z,10.27
2022-12-04T19:17:09.715Z,9.57
2022-12-04T19:19:37.836Z,10.05
2022-12-04T19:22:05.939Z,9.05
2022-12-04T19:24:35.458Z,8.80
2022-12-04T19:27:10.942Z,10.85
2022-12-04T19:29:39.768Z,10.20
2022-12-04T19:32:08.366Z,11.05
2022-12-04T19:34:36.729Z,10.50
2022-12-04T19:37:05.039Z,9.93
2022-12-04T19:39:33.159Z,9.90
2022-12-04T19:42:02.667Z,9.43
2022-12-04T19:47:19.732Z,10.52
2022-12-04T19:49:47.811Z,9.52
2022-12-04T19:52:16.605Z,9.40
2022-12-04T19:54:44.830Z,9.73
2022-12-04T19:57:14.945Z,9.85
2022-12-04T19:59:46.477Z,10.15
2022-12-04T20:02:15.943Z,9.57
2022-12-04T20:04:44.310Z,9.30
2022-12-04T20:07:12.610Z,9.05
2022-12-04T20:09:40.896Z,8.15
2022-12-04T20:12:09.381Z,8.38
2022-12-04T20:14:39.112Z,8.48
2022-12-04T20:17:07.307Z,8.15
2022-12-04T20:19:35.500Z,8.05
2022-12-04T20:22:03.687Z,8.02
2022-12-04T20:24:32.052Z,7.85
2022-12-04T20:27:00.156Z,8.40
2022-12-04T20:29:28.294Z,10.10
2022-12-04T20:31:57.851Z,8.27
2022-12-04T20:34:25.992Z,8.55
2022-12-04T20:36:54.186Z,8.95
2022-12-04T20:39:22.329Z,8.95
2022-12-04T20:41:50.499Z,8.65
2022-12-04T20:44:20.854Z,8.70
2022-12-04T20:46:49.773Z,8.90
2022-12-04T20:49:22.568Z,10.15
2022-12-04T20:51:52.549Z,9.38
2022-12-04T20:54:23.594Z,10.15
2022-12-04T20:56:53.592Z,8.10
2022-12-04T20:59:23.936Z,8.52
2022-12-04T21:01:52.705Z,8.57
2022-12-04T21:04:22.858Z,8.50
2022-12-04T21:06:51.103Z,7.88
2022-12-04T21:09:21.790Z,8.55
2022-12-04T21:11:51.992Z,8.10
2022-12-04T21:14:39.505Z,8.35
2022-12-04T21:17:09.529Z,9.55
2022-12-04T21:19:39.271Z,7.90
2022-12-04T21:22:07.451Z,9.10
2022-12-04T21:24:38.690Z,7.85
2022-12-04T21:27:07.964Z,8.30
2022-12-04T21:29:36.824Z,8.00
2022-12-04T21:32:06.003Z,7.80
2022-12-04T21:34:34.662Z,8.45
2022-12-04T21:37:04.550Z,6.97
2022-12-04T21:39:32.754Z,7.25
2022-12-04T21:42:18.260Z,8.18
2022-12-04T21:44:46.733Z,9.05
2022-12-04T21:47:14.902Z,7.97
2022-12-04T21:49:43.042Z,7.80
2022-12-04T21:52:12.512Z,8.02
2022-12-04T21:54:40.765Z,8.43
2022-12-04T21:57:09.199Z,8.75
2022-12-04T21:59:37.542Z,8.23
2022-12-04T22:02:05.773Z,6.60
2022-12-04T22:04:34.028Z,7.18
2022-12-04T22:07:02.158Z,6.57
2022-12-04T22:09:31.629Z,7.30
2022-12-04T22:11:59.804Z,7.53
2022-12-04T22:14:28.170Z,7.70
2022-12-04T22:16:56.357Z,6.60
2022-12-04T22:19:24.526Z,7.78
2022-12-04T22:21:52.640Z,7.40
2022-12-04T22:24:21.299Z,7.40
2022-12-04T22:26:50.821Z,7.60
2022-12-04T22:29:49.710Z,6.72
2022-12-04T22:32:07.086Z,7.68
2022-12-04T22:34:35.480Z,6.65
2022-12-04T22:37:03.625Z,7.93
2022-12-04T22:39:33.543Z,5.95
2022-12-04T22:42:03.042Z,6.95
2022-12-04T22:44:31.215Z,6.35
2022-12-04T22:46:59.372Z,6.10
2022-12-04T22:49:27.561Z,7.13
2022-12-04T22:51:55.701Z,6.57
2022-12-04T22:54:23.815Z,7.40
2022-12-04T22:56:51.890Z,7.70
2022-12-04T22:59:21.461Z,7.07
2022-12-04T23:01:49.567Z,7.60
2022-12-04T23:04:17.725Z,7.22
2022-12-04T23:06:45.949Z,7.45
2022-12-04T23:09:15.930Z,7.80
2022-12-04T23:11:45.181Z,7.93
2022-12-04T23:14:15.783Z,7.72
2022-12-04T23:16:45.854Z,8.80
2022-12-04T23:19:16.190Z,7.70
2022-12-04T23:21:45.168Z,8.07
2022-12-04T23:24:13.811Z,8.20
2022-12-04T23:26:44.787Z,7.85
2022-12-04T23:29:36.966Z,8.38
2022-12-04T23:32:03.134Z,9.05
2022-12-04T23:34:31.594Z,7.15
2022-12-04T23:36:59.784Z,7.35
2022-12-04T23:39:28.087Z,8.30
2022-12-04T23:41:56.217Z,7.93
2022-12-04T23:44:24.369Z,8.13
2022-12-04T23:46:52.571Z,7.47
2022-12-04T23:49:22.276Z,8.85
2022-12-04T23:51:50.488Z,7.43
2022-12-04T23:54:18.658Z,8.38
2022-12-04T23:56:47.897Z,8.27
2022-12-04T23:59:16.037Z,7.65
